Time;durP1;ratioP1;P1;durP2;ratioP2;P2;SDS_P1;SDS_P2;PMS_P1;PMS_P2;Temp;Humidity;BMP_temperature;BMP_pressure;BME280_temperature;BME280_humidity;BME280_pressure;Samples;Min_cycle;Max_cycle;Signal;HPM_P1;HPM_P2
2023/04/24 00:00:14;;;;;;;;;13.50;11.50;;;;;10.36;81.60;97583.88;5034921;27;101534;-74
2023/04/24 00:02:46;;;;;;;;;7.00;7.00;;;;;10.25;81.46;97563.00;5040459;27;101765;-74
2023/04/24 00:05:24;;;;;;;;;9.00;9.00;;;;;10.28;81.76;97576.06;5053524;27;101637;-74
2023/04/24 00:08:14;;;;;;;;;9.00;5.50;;;;;9.97;82.13;97536.47;5031474;27;102437;-75
2023/04/24 00:11:09;;;;;;;;;11.75;9.50;;;;;10.13;83.87;97570.19;5039994;27;101565;-75
2023/04/24 00:13:43;;;;;;;;;20.75;16.25;;;;;10.02;84.08;97574.44;5040001;27;101899;-73
2023/04/24 00:16:10;;;;;;;;;24.50;20.25;;;;;9.91;83.32;97550.00;5040222;27;101986;-76
2023/04/24 00:18:37;;;;;;;;;21.75;15.00;;;;;10.00;84.04;97563.00;5042590;27;103343;-74
2023/04/24 00:21:05;;;;;;;;;18.00;16.50;;;;;9.99;83.66;97560.56;5032757;27;101542;-76
2023/04/24 00:23:31;;;;;;;;;17.50;13.75;;;;;10.07;77.08;97557.56;5039216;27;101792;-76
2023/04/24 00:25:58;;;;;;;;;15.75;12.00;;;;;10.15;76.86;97549.16;5032544;27;102499;-75
2023/04/24 00:28:25;;;;;;;;;9.75;9.00;;;;;10.22;74.64;97549.97;5035618;27;103487;-75
2023/04/24 00:30:52;;;;;;;;;9.00;8.00;;;;;10.17;71.98;97526.31;5043105;27;101655;-75
2023/04/24 00:33:20;;;;;;;;;7.00;6.00;;;;;10.48;70.53;97544.25;5036977;27;101494;-75
2023/04/24 00:35:47;;;;;;;;;7.75;6.00;;;;;10.66;69.67;97546.09;5035499;27;101820;-74
2023/04/24 00:38:15;;;;;;;;;6.75;5.50;;;;;10.85;67.68;97536.09;5048849;27;102910;-74
2023/04/24 00:40:43;;;;;;;;;6.25;6.25;;;;;11.01;67.42;97532.75;5040500;27;101810;-75
2023/04/24 00:43:11;;;;;;;;;4.00;4.00;;;;;11.11;66.76;97536.53;5036285;27;101604;-74
2023/04/24 00:45:38;;;;;;;;;5.00;4.00;;;;;11.19;65.92;97532.69;5035725;27;101581;-75
2023/04/24 00:48:06;;;;;;;;;4.75;4.75;;;;;11.23;65.75;97531.16;5041196;27;103350;-75
2023/04/24 00:50:35;;;;;;;;;6.75;4.25;;;;;11.28;64.88;97523.19;5032741;27;101711;-75
2023/04/24 00:53:02;;;;;;;;;3.00;3.00;;;;;11.25;64.62;97518.22;5035437;27;102018;-75
2023/04/24 00:55:30;;;;;;;;;2.75;2.75;;;;;11.34;64.10;97516.84;5046566;27;101467;-75
2023/04/24 00:57:57;;;;;;;;;3.00;2.50;;;;;11.32;63.24;97516.25;5045283;27;103503;-75
2023/04/24 01:00:25;;;;;;;;;3.00;3.00;;;;;11.41;63.36;97528.38;5038339;27;101675;-75
2023/04/24 01:02:53;;;;;;;;;1.75;1.00;;;;;11.44;62.57;97518.94;5047796;27;101765;-74
2023/04/24 01:05:30;;;;;;;;;1.25;1.25;;;;;11.48;62.22;97518.25;5054510;27;101535;-75
2023/04/24 01:08:18;;;;;;;;;1.00;1.00;;;;;11.51;61.57;97517.81;5028289;27;103727;-75
2023/04/24 01:11:06;;;;;;;;;2.00;2.00;;;;;11.53;61.29;97506.72;5046865;27;102092;-75
2023/04/24 01:13:58;;;;;;;;;1.50;1.50;;;;;11.50;61.15;97508.03;5028318;27;101528;-74
2023/04/24 01:16:45;;;;;;;;;1.00;0.00;;;;;11.51;61.75;97511.56;5031031;27;101793;-75
2023/04/24 01:19:19;;;;;;;;;1.00;0.50;;;;;11.45;60.70;97505.19;5036755;27;106817;-74
2023/04/24 01:21:50;;;;;;;;;1.75;1.75;;;;;11.48;61.70;97512.03;5035701;27;101595;-74
2023/04/24 01:24:19;;;;;;;;;1.50;1.50;;;;;11.44;65.55;97506.25;5034467;27;102518;-74
2023/04/24 01:26:46;;;;;;;;;14.50;11.00;;;;;11.12;69.16;97499.50;5036870;27;101906;-73
2023/04/24 01:29:13;;;;;;;;;13.00;11.25;;;;;10.80;71.55;97501.63;5039047;27;103340;-75
2023/04/24 01:31:41;;;;;;;;;10.75;8.50;;;;;10.68;74.90;97498.84;5033018;27;101694;-75
2023/04/24 01:34:08;;;;;;;;;19.25;17.25;;;;;10.36;76.80;97497.41;5035130;27;101834;-76
2023/04/24 01:36:36;;;;;;;;;19.50;17.00;;;;;10.23;75.86;97486.75;5037093;27;102813;-76
2023/04/24 01:39:03;;;;;;;;;14.50;11.25;;;;;10.26;74.34;97497.13;5031026;27;103327;-75
2023/04/24 01:41:30;;;;;;;;;22.00;18.25;;;;;10.13;76.55;97495.34;5034429;27;101363;-75
2023/04/24 01:43:58;;;;;;;;;18.75;17.25;;;;;10.01;76.48;97496.31;5040034;27;101368;-75
2023/04/24 01:46:25;;;;;;;;;13.50;12.25;;;;;10.02;75.68;97498.00;5041060;27;101918;-75
2023/04/24 01:48:53;;;;;;;;;17.75;14.50;;;;;9.90;77.45;97483.59;5036455;27;103357;-75
2023/04/24 01:51:20;;;;;;;;;14.25;14.00;;;;;9.75;76.54;97487.47;5035923;27;101680;-74
2023/04/24 01:53:47;;;;;;;;;19.25;16.50;;;;;9.74;77.40;97480.41;5050531;27;101446;-75
2023/04/24 01:56:14;;;;;;;;;13.00;12.00;;;;;9.69;79.50;97479.41;5046548;27;102220;-74
2023/04/24 01:58:42;;;;;;;;;11.75;11.75;;;;;9.65;81.69;97481.75;5041822;27;106579;-76
2023/04/24 02:01:15;;;;;;;;;12.75;11.25;;;;;9.54;81.91;97471.69;5031545;27;101844;-75
2023/04/24 02:03:42;;;;;;;;;14.00;12.00;;;;;9.48;81.71;97482.53;5043750;27;101657;-75
2023/04/24 02:06:09;;;;;;;;;12.50;10.25;;;;;9.44;81.05;97468.66;5048392;27;101637;-75
2023/04/24 02:08:36;;;;;;;;;12.50;11.00;;;;;9.38;81.51;97473.06;5034781;27;103474;-75
2023/04/24 02:11:03;;;;;;;;;10.75;10.25;;;;;9.30;82.22;97464.44;5031519;27;101354;-75
2023/04/24 02:13:30;;;;;;;;;10.00;9.50;;;;;9.34;81.38;97465.66;5030406;27;102055;-75
2023/04/24 02:15:58;;;;;;;;;13.25;11.50;;;;;9.26;76.78;97469.44;5038322;27;102093;-75
2023/04/24 02:18:25;;;;;;;;;11.00;9.00;;;;;9.26;74.41;97463.22;5030708;27;103318;-76
2023/04/24 02:20:52;;;;;;;;;9.00;8.25;;;;;9.35;75.32;97467.31;5040506;27;101428;-75
2023/04/24 02:23:19;;;;;;;;;10.00;8.50;;;;;9.37;77.00;97462.50;5033588;27;101499;-75
2023/04/24 02:25:47;;;;;;;;;6.00;6.00;;;;;9.36;78.97;97464.41;5039444;27;101976;-74
2023/04/24 02:28:14;;;;;;;;;10.00;10.00;;;;;9.30;78.46;97453.66;5045777;27;103318;-75
2023/04/24 02:30:41;;;;;;;;;13.25;13.00;;;;;9.19;83.04;97467.84;5040290;27;101740;-75
2023/04/24 02:33:08;;;;;;;;;24.25;18.75;;;;;9.06;85.32;97451.75;5035245;27;101730;-76
2023/04/24 02:35:35;;;;;;;;;22.75;18.75;;;;;8.78;79.34;97430.63;5035990;27;101959;-75
2023/04/24 02:38:02;;;;;;;;;22.75;18.00;;;;;8.91;80.74;97447.53;5030579;27;103582;-76
2023/04/24 02:40:30;;;;;;;;;27.50;27.50;;;;;8.71;79.64;97441.44;5037691;27;101516;-76
2023/04/24 02:42:56;;;;;;;;;26.00;23.75;;;;;8.66;82.35;97440.44;5034989;27;101742;-75
2023/04/24 02:45:24;;;;;;;;;17.75;12.00;;;;;8.62;82.50;97434.66;5032302;27;101482;-75
2023/04/24 02:47:50;;;;;;;;;17.00;16.50;;;;;8.69;81.04;97445.41;5041742;27;103353;-75
2023/04/24 02:50:17;;;;;;;;;16.50;13.00;;;;;8.70;80.98;97447.03;5035176;27;101522;-75
2023/04/24 02:52:44;;;;;;;;;15.75;14.50;;;;;8.70;80.51;97450.56;5037013;27;101391;-73
2023/04/24 02:55:11;;;;;;;;;12.00;12.00;;;;;8.70;80.43;97447.88;5046691;27;101706;-76
2023/04/24 02:57:38;;;;;;;;;6.25;5.75;;;;;8.67;81.67;97432.16;5042146;27;103401;-75
2023/04/24 03:00:07;;;;;;;;;14.25;11.50;;;;;8.43;82.92;97424.84;5039544;27;101710;-75
2023/04/24 03:02:33;;;;;;;;;11.50;11.00;;;;;8.54;82.31;97442.19;5038323;27;101860;-75
2023/04/24 03:05:02;;;;;;;;;9.25;8.25;;;;;8.50;81.83;97441.81;5047230;27;101613;-75
2023/04/24 03:07:29;;;;;;;;;12.00;11.75;;;;;8.49;80.27;97445.53;5036763;27;103319;-75
2023/04/24 03:09:57;;;;;;;;;6.00;4.75;;;;;8.49;81.98;97442.84;5037122;27;101534;-76
2023/04/24 03:12:25;;;;;;;;;13.25;11.00;;;;;8.25;82.77;97416.63;5029977;27;102401;-75
2023/04/24 03:14:52;;;;;;;;;16.25;13.50;;;;;8.36;81.50;97441.03;5045562;27;102041;-74
2023/04/24 03:17:19;;;;;;;;;19.50;18.00;;;;;8.38;83.32;97443.50;5035149;27;103402;-74
2023/04/24 03:19:46;;;;;;;;;16.00;15.25;;;;;8.37;80.50;97444.56;5040951;27;101610;-73
2023/04/24 03:22:13;;;;;;;;;17.50;13.75;;;;;8.40;79.77;97444.13;5034750;27;101970;-74
2023/04/24 03:24:40;;;;;;;;;19.75;17.25;;;;;8.37;80.47;97441.88;5048788;27;101717;-75
2023/04/24 03:27:07;;;;;;;;;16.50;15.00;;;;;8.37;82.15;97436.50;5046911;27;103495;-75
2023/04/24 03:29:34;;;;;;;;;15.25;13.50;;;;;8.37;82.46;97439.19;5033504;27;101743;-75
2023/04/24 03:32:01;;;;;;;;;8.50;7.50;;;;;8.35;82.21;97439.38;5041885;27;102465;-75
2023/04/24 03:34:28;;;;;;;;;12.75;12.00;;;;;8.28;83.89;97437.75;5039115;27;101523;-74
2023/04/24 03:36:55;;;;;;;;;8.75;8.25;;;;;8.29;84.70;97445.63;5029911;27;103472;-75
2023/04/24 03:39:22;;;;;;;;;1.00;0.00;;;;;8.29;83.14;97442.06;5036562;27;101800;-74
2023/04/24 03:41:49;;;;;;;;;12.00;10.00;;;;;8.23;84.11;97437.56;5043406;27;102289;-74
2023/04/24 03:44:16;;;;;;;;;16.50;11.75;;;;;8.16;84.69;97442.97;5038629;27;101771;-74
2023/04/24 03:46:43;;;;;;;;;13.50;9.75;;;;;8.10;85.65;97445.69;5040351;27;103360;-75
2023/04/24 03:49:10;;;;;;;;;11.75;10.00;;;;;8.05;85.91;97443.66;5032374;27;101484;-75
2023/04/24 03:51:37;;;;;;;;;19.75;19.75;;;;;7.98;86.19;97445.53;5040494;27;102321;-75
2023/04/24 03:54:03;;;;;;;;;16.25;14.50;;;;;8.11;86.25;97448.16;5047872;27;101709;-76
2023/04/24 03:56:30;;;;;;;;;21.75;19.25;;;;;8.05;87.90;97451.72;5038400;27;103372;-75
2023/04/24 03:58:57;;;;;;;;;17.50;15.50;;;;;8.16;89.24;97442.13;5043952;27;102014;-75
2023/04/24 04:01:24;;;;;;;;;15.25;12.75;;;;;8.26;89.03;97446.03;5034346;27;101594;-75
2023/04/24 04:03:51;;;;;;;;;11.25;9.75;;;;;8.40;86.79;97449.50;5046792;27;101840;-75
2023/04/24 04:06:19;;;;;;;;;20.00;14.00;;;;;8.42;85.35;97450.13;5032471;27;103366;-74
2023/04/24 04:08:46;;;;;;;;;9.50;9.00;;;;;8.51;88.04;97448.81;5034943;27;101728;-74
2023/04/24 04:11:13;;;;;;;;;15.75;14.25;;;;;8.44;89.13;97432.69;5039902;27;101794;-74
2023/04/24 04:13:40;;;;;;;;;14.25;11.25;;;;;8.58;88.39;97444.22;5040356;27;101817;-74
2023/04/24 04:16:09;;;;;;;;;13.50;12.00;;;;;8.71;86.91;97448.69;5034350;27;103322;-74
2023/04/24 04:18:36;;;;;;;;;9.50;9.00;;;;;8.80;86.68;97447.41;5046486;27;101590;-74
2023/04/24 04:21:03;;;;;;;;;12.00;9.00;;;;;8.87;85.48;97438.22;5040266;27;101549;-74
2023/04/24 04:23:30;;;;;;;;;6.75;5.75;;;;;8.95;83.97;97437.97;5033176;27;101542;-75
2023/04/24 04:25:57;;;;;;;;;7.50;7.50;;;;;9.01;85.43;97440.81;5032979;27;103324;-76
2023/04/24 04:28:24;;;;;;;;;15.00;12.75;;;;;9.15;83.46;97442.34;5045301;27;102767;-74
2023/04/24 04:30:54;;;;;;;;;12.00;11.50;;;;;9.26;84.33;97441.66;5039490;27;101548;-74
2023/04/24 04:33:21;;;;;;;;;11.50;10.50;;;;;9.26;81.91;97429.00;5036158;27;101631;-74
2023/04/24 04:35:49;;;;;;;;;14.75;12.75;;;;;9.35;82.99;97427.66;5039285;27;103371;-74
2023/04/24 04:38:16;;;;;;;;;13.50;12.50;;;;;9.43;83.54;97431.94;5044173;27;101973;-73
2023/04/24 04:40:44;;;;;;;;;14.50;12.50;;;;;9.55;84.56;97426.63;5036655;27;101908;-74
2023/04/24 04:43:13;;;;;;;;;10.50;8.75;;;;;9.59;84.81;97423.25;5045062;27;101746;-74
2023/04/24 04:45:41;;;;;;;;;19.25;14.50;;;;;9.70;83.30;97425.22;5040969;27;103365;-75
2023/04/24 04:48:09;;;;;;;;;18.50;12.00;;;;;9.77;82.40;97431.38;5041234;27;101581;-75
2023/04/24 04:50:36;;;;;;;;;17.00;14.25;;;;;9.88;83.50;97426.28;5046656;27;101596;-75
2023/04/24 04:53:03;;;;;;;;;18.00;16.00;;;;;9.93;82.31;97431.81;5039450;27;101556;-75
2023/04/24 04:55:30;;;;;;;;;26.50;24.75;;;;;9.97;80.94;97431.16;5041050;27;104380;-73
2023/04/24 04:57:57;;;;;;;;;31.00;25.75;;;;;10.06;81.01;97432.50;5029765;27;101686;-74
2023/04/24 05:00:25;;;;;;;;;30.50;26.25;;;;;10.20;79.28;97434.03;5034445;27;101535;-74
2023/04/24 05:02:52;;;;;;;;;32.25;25.00;;;;;10.34;79.08;97437.38;5031516;27;101864;-74
2023/04/24 05:05:19;;;;;;;;;26.25;22.25;;;;;10.49;78.25;97440.47;5031488;27;103376;-74
2023/04/24 05:07:46;;;;;;;;;28.00;23.75;;;;;10.76;77.43;97434.72;5039574;27;101740;-73
2023/04/24 05:10:13;;;;;;;;;34.50;32.25;;;;;10.83;77.40;97433.56;5035948;27;101899;-74
2023/04/24 05:12:40;;;;;;;;;33.00;30.25;;;;;10.91;76.09;97435.94;5040927;27;101938;-74
2023/04/24 05:15:10;;;;;;;;;31.50;29.00;;;;;10.99;76.22;97432.06;5036941;27;103349;-74
2023/04/24 05:17:37;;;;;;;;;20.00;18.75;;;;;11.52;73.98;97438.25;5037906;27;101733;-74
2023/04/24 05:20:09;;;;;;;;;28.25;22.25;;;;;11.97;69.92;97438.47;5032276;27;102427;-74
2023/04/24 05:22:36;;;;;;;;;39.25;34.50;;;;;12.50;67.52;97430.06;5035132;27;102222;-73
2023/04/24 05:25:03;;;;;;;;;30.00;29.25;;;;;12.87;67.28;97435.09;5040465;27;103335;-74
2023/04/24 05:27:30;;;;;;;;;32.25;30.75;;;;;13.66;63.90;97430.44;5048385;27;101972;-74
2023/04/24 05:29:57;;;;;;;;;29.50;26.25;;;;;14.28;61.88;97434.56;5032276;27;101770;-74
2023/04/24 05:32:24;;;;;;;;;21.75;19.25;;;;;15.22;58.25;97419.81;5028257;27;101456;-73
2023/04/24 05:34:51;;;;;;;;;22.00;19.75;;;;;15.61;55.58;97445.75;5033800;27;103354;-73
2023/04/24 05:37:18;;;;;;;;;12.50;12.50;;;;;16.29;55.83;97438.53;5051103;27;101486;-73
2023/04/24 05:39:45;;;;;;;;;17.75;16.00;;;;;16.47;54.92;97435.34;5042011;27;101544;-72
2023/04/24 05:42:12;;;;;;;;;19.50;18.00;;;;;16.81;55.08;97430.28;5035889;27;101899;-74
2023/04/24 05:44:39;;;;;;;;;23.00;20.75;;;;;17.25;53.54;97422.41;5032988;27;103340;-75
2023/04/24 05:47:06;;;;;;;;;28.75;25.25;;;;;17.17;49.96;97425.69;5041272;27;102166;-74
2023/04/24 05:49:33;;;;;;;;;33.00;30.00;;;;;18.03;51.48;97422.94;5049187;27;101584;-75
2023/04/24 05:52:00;;;;;;;;;22.25;20.50;;;;;18.78;47.05;97423.78;5046004;27;101608;-74
2023/04/24 05:54:27;;;;;;;;;24.50;21.50;;;;;19.20;43.52;97420.47;5048423;27;103354;-74
2023/04/24 05:56:55;;;;;;;;;18.00;17.25;;;;;19.87;46.17;97414.19;5045072;27;101364;-75
2023/04/24 05:59:22;;;;;;;;;12.00;11.67;;;;;20.38;40.99;97425.47;5051147;27;101618;-74
2023/04/24 06:01:49;;;;;;;;;9.00;9.00;;;;;20.61;38.16;97418.31;5043344;27;101836;-75
2023/04/24 06:04:16;;;;;;;;;12.67;10.67;;;;;20.89;37.96;97414.66;5038023;27;102939;-73
2023/04/24 06:06:43;;;;;;;;;9.00;9.00;;;;;21.14;37.76;97406.06;5041320;27;101844;-74
2023/04/24 06:09:10;;;;;;;;;11.00;10.00;;;;;21.48;37.55;97410.50;5033344;27;101492;-74
2023/04/24 06:11:37;;;;;;;;;9.33;8.00;;;;;21.74;36.58;97409.75;5043256;27;101613;-75
2023/04/24 06:14:04;;;;;;;;;8.00;8.00;;;;;21.76;34.35;97412.19;5033276;27;103377;-75
2023/04/24 06:16:31;;;;;;;;;9.00;9.00;;;;;21.53;34.35;97407.63;5035550;27;101516;-74
2023/04/24 06:18:58;;;;;;;;;9.00;9.00;;;;;21.50;37.21;97402.72;5035797;27;101563;-74
2023/04/24 06:21:25;;;;;;;;;9.00;9.00;;;;;21.49;35.62;97409.34;5035466;27;101679;-75
2023/04/24 06:23:52;;;;;;;;;7.00;6.00;;;;;21.61;35.07;97401.47;5036133;27;103563;-75
2023/04/24 06:26:19;;;;;;;;;8.00;8.00;;;;;21.68;33.52;97410.13;5032466;27;101815;-73
2023/04/24 06:28:46;;;;;;;;;4.33;4.33;;;;;21.61;33.62;97402.28;5042563;27;101829;-74
2023/04/24 06:31:13;;;;;;;;;5.00;5.00;;;;;21.28;32.66;97409.69;5052325;27;101888;-75
2023/04/24 06:33:40;;;;;;;;;6.67;6.67;;;;;21.16;35.18;97395.59;5047740;27;103445;-73
2023/04/24 06:36:07;;;;;;;;;7.00;7.00;;;;;21.04;35.53;97403.41;5038071;27;101602;-74
2023/04/24 06:38:34;;;;;;;;;5.00;5.00;;;;;21.06;36.04;97398.47;5045746;27;101510;-74
2023/04/24 06:41:01;;;;;;;;;10.00;8.00;;;;;20.86;34.43;97401.47;5046928;27;101943;-74
2023/04/24 06:43:28;;;;;;;;;10.00;9.00;;;;;20.76;35.73;97399.69;5033996;27;103364;-74
2023/04/24 06:45:55;;;;;;;;;7.00;7.00;;;;;20.84;35.10;97390.00;5039453;27;101506;-74
2023/04/24 06:48:23;;;;;;;;;9.00;8.00;;;;;21.00;33.60;97383.16;5040601;27;104356;-74
2023/04/24 06:50:51;;;;;;;;;5.67;5.67;;;;;21.19;33.06;97389.47;5042868;27;102420;-74
2023/04/24 06:53:18;;;;;;;;;8.33;8.33;;;;;21.19;33.61;97364.75;5041027;27;103358;-73
2023/04/24 06:55:45;;;;;;;;;7.67;7.67;;;;;21.25;33.00;97395.72;5025945;28;101728;-75
2023/04/24 06:58:13;;;;;;;;;7.67;7.67;;;;;21.18;32.58;97390.59;5038890;27;101426;-75
2023/04/24 07:00:39;;;;;;;;;8.33;7.00;;;;;21.35;35.02;97385.38;5041754;27;101669;-74
2023/04/24 07:03:07;;;;;;;;;7.00;6.00;;;;;21.57;35.74;97390.22;5034433;27;103412;-74
2023/04/24 07:05:35;;;;;;;;;9.67;8.33;;;;;21.78;33.54;97379.69;5033132;27;102439;-74
2023/04/24 07:08:03;;;;;;;;;8.00;8.00;;;;;22.01;33.27;97384.25;5037954;27;101735;-74
2023/04/24 07:10:30;;;;;;;;;5.00;5.00;;;;;21.69;32.28;97378.75;5052244;27;101488;-74
2023/04/24 07:12:57;;;;;;;;;4.33;4.33;;;;;21.62;31.78;97383.81;5041006;27;103334;-73
2023/04/24 07:15:24;;;;;;;;;9.00;8.33;;;;;21.18;35.09;97327.38;5034663;27;101659;-74
2023/04/24 07:17:51;;;;;;;;;7.00;7.00;;;;;21.28;33.91;97379.44;5035375;27;101917;-74
2023/04/24 07:20:18;;;;;;;;;11.00;11.00;;;;;20.48;30.55;97382.22;5043559;27;105820;-74
2023/04/24 07:22:45;;;;;;;;;11.00;9.00;;;;;20.85;33.01;97369.63;5051380;27;107753;-74
2023/04/24 07:25:12;;;;;;;;;4.00;4.00;;;;;21.21;31.86;97362.50;5046594;27;102550;-74
2023/04/24 07:27:39;;;;;;;;;9.00;9.00;;;;;20.64;30.05;97362.78;5043226;27;101976;-74
2023/04/24 07:30:06;;;;;;;;;10.00;10.00;;;;;20.31;34.14;97370.06;5036994;27;101456;-73
2023/04/24 07:32:33;;;;;;;;;7.00;7.00;;;;;20.86;34.52;97376.75;5051424;27;103323;-74
2023/04/24 07:35:01;;;;;;;;;5.67;5.67;;;;;21.04;33.03;97369.63;5053023;27;101623;-74
2023/04/24 07:37:28;;;;;;;;;5.00;5.00;;;;;21.12;34.33;97374.47;5041224;27;102566;-74
2023/04/24 07:39:55;;;;;;;;;4.00;4.00;;;;;20.92;33.49;97370.06;5047952;27;101490;-73
2023/04/24 07:42:22;;;;;;;;;4.67;4.67;;;;;21.02;32.82;97372.69;5045639;27;104869;-74
2023/04/24 07:44:49;;;;;;;;;3.00;3.00;;;;;21.11;32.61;97357.16;5057212;27;102428;-73
2023/04/24 07:47:16;;;;;;;;;3.67;3.67;;;;;20.74;34.11;97357.97;5040282;27;101686;-75
2023/04/24 07:49:43;;;;;;;;;4.00;4.00;;;;;20.86;34.06;97365.75;5038576;27;101769;-74
2023/04/24 07:52:10;;;;;;;;;5.00;5.00;;;;;21.07;32.15;97352.53;5032424;27;103563;-75
2023/04/24 07:54:37;;;;;;;;;4.00;4.00;;;;;20.76;33.05;97354.91;5045247;27;101638;-74
2023/04/24 07:57:06;;;;;;;;;6.00;6.00;;;;;20.89;34.89;97354.19;5031126;27;102291;-73
2023/04/24 07:59:33;;;;;;;;;7.00;6.33;;;;;20.91;34.08;97351.94;5030103;27;101465;-75
2023/04/24 08:02:01;;;;;;;;;4.67;4.00;;;;;21.09;32.18;97351.13;5035358;27;103466;-74
2023/04/24 08:04:28;;;;;;;;;4.00;4.00;;;;;21.19;32.20;97352.94;5037995;27;101554;-74
2023/04/24 08:06:55;;;;;;;;;4.00;4.00;;;;;21.08;31.35;97352.22;5047664;27;101680;-75
2023/04/24 08:09:22;;;;;;;;;4.33;4.00;;;;;21.29;32.46;97344.50;5033353;27;101861;-75
2023/04/24 08:11:53;;;;;;;;;3.33;2.67;;;;;21.44;33.64;97354.41;5033683;27;102836;-74
2023/04/24 08:14:20;;;;;;;;;3.33;3.33;;;;;21.44;33.35;97343.41;5046020;27;101528;-73
2023/04/24 08:16:47;;;;;;;;;3.33;3.00;;;;;21.51;32.76;97352.13;5044327;27;101857;-73
2023/04/24 08:19:14;;;;;;;;;4.67;4.00;;;;;21.40;33.04;97348.72;5035247;27;101813;-74
2023/04/24 08:21:41;;;;;;;;;3.00;3.00;;;;;21.29;32.82;97342.59;5023225;27;103661;-74
2023/04/24 08:24:08;;;;;;;;;4.00;4.00;;;;;21.11;32.87;97342.59;4983836;27;101443;-74
2023/04/24 08:26:35;;;;;;;;;4.00;4.00;;;;;21.13;32.95;97332.94;4976597;28;101636;-74
2023/04/24 08:29:02;;;;;;;;;3.00;2.33;;;;;21.15;35.59;97329.91;4990907;27;101723;-73
2023/04/24 08:31:29;;;;;;;;;8.67;7.00;;;;;20.67;33.93;97330.03;4989183;28;103366;-74
2023/04/24 08:33:56;;;;;;;;;5.33;5.00;;;;;20.86;33.81;97344.59;4984728;27;101591;-74
2023/04/24 08:36:23;;;;;;;;;5.00;5.00;;;;;20.91;33.71;97338.22;4983882;28;104124;-74
2023/04/24 08:38:58;;;;;;;;;4.00;4.00;;;;;20.95;33.11;97333.75;4987364;27;103277;-74
2023/04/24 08:41:27;;;;;;;;;3.33;3.33;;;;;21.00;32.98;97328.19;4984310;27;103184;-73
2023/04/24 08:43:57;;;;;;;;;5.00;4.33;;;;;21.25;32.64;97329.75;4978046;28;101541;-74
2023/04/24 08:46:25;;;;;;;;;4.00;4.00;;;;;21.25;31.61;97327.78;4991011;28;101648;-74
2023/04/24 08:48:53;;;;;;;;;5.33;5.00;;;;;21.25;32.22;97330.53;4984412;28;101604;-74
2023/04/24 08:51:20;;;;;;;;;7.00;7.00;;;;;20.83;32.43;97333.41;4987808;27;103341;-73
2023/04/24 08:53:48;;;;;;;;;7.00;7.00;;;;;20.86;33.88;97332.78;5003946;28;101282;-74
2023/04/24 08:56:16;;;;;;;;;5.00;5.00;;;;;21.11;32.79;97328.84;4935920;28;101604;-73
2023/04/24 08:58:43;;;;;;;;;5.00;3.67;;;;;21.34;33.70;97320.47;4981270;28;101573;-74
2023/04/24 09:01:11;;;;;;;;;3.00;3.00;;;;;21.60;34.07;97333.78;4989335;27;103406;-74
2023/04/24 09:03:39;;;;;;;;;3.00;3.00;;;;;21.73;33.01;97336.56;4985283;28;101663;-74
2023/04/24 09:06:08;;;;;;;;;6.00;6.00;;;;;21.73;35.22;97328.31;4984517;28;101560;-73
2023/04/24 09:08:36;;;;;;;;;3.00;3.00;;;;;21.46;33.80;97321.94;4988930;27;101826;-73
2023/04/24 09:11:03;;;;;;;;;4.67;4.67;;;;;21.27;33.07;97322.81;4986095;27;103190;-74
2023/04/24 09:13:31;;;;;;;;;3.67;3.67;;;;;21.35;32.67;97329.53;4981525;28;101539;-74
2023/04/24 09:16:00;;;;;;;;;5.33;5.33;;;;;21.56;35.44;97325.34;4986115;28;101632;-74
2023/04/24 09:18:27;;;;;;;;;9.33;9.33;;;;;21.17;30.12;97322.97;4988675;27;101687;-74
2023/04/24 09:21:07;;;;;;;;;12.00;12.00;;;;;20.37;32.63;97317.56;4982797;27;103002;-74
2023/04/24 09:23:34;;;;;;;;;11.33;11.00;;;;;20.78;35.10;97322.47;4996325;28;101508;-74
2023/04/24 09:26:04;;;;;;;;;11.33;10.67;;;;;21.04;31.22;97315.47;4992016;28;101560;-74
2023/04/24 09:28:39;;;;;;;;;9.33;8.00;;;;;21.28;31.30;97318.13;4983759;27;101664;-74
2023/04/24 09:31:07;;;;;;;;;10.00;9.00;;;;;20.89;30.38;97310.22;4980442;27;103317;-74
2023/04/24 09:33:35;;;;;;;;;8.00;8.00;;;;;21.29;30.75;97315.09;4981611;27;101586;-74
2023/04/24 09:36:03;;;;;;;;;7.00;7.00;;;;;21.56;30.95;97310.78;4990726;28;101749;-73
2023/04/24 09:38:34;;;;;;;;;7.00;6.00;;;;;21.45;30.81;97303.81;4993904;27;101521;-73
2023/04/24 09:41:03;;;;;;;;;9.00;9.00;;;;;21.06;31.06;97287.69;4988220;27;103353;-74
2023/04/24 09:43:31;;;;;;;;;9.67;8.67;;;;;20.89;30.96;97299.25;4990805;27;101728;-74
2023/04/24 09:45:59;;;;;;;;;12.00;9.00;;;;;21.05;31.50;97291.56;4982582;28;101576;-73
2023/04/24 09:48:37;;;;;;;;;8.67;8.67;;;;;21.20;33.64;97289.41;4974084;28;101703;-74
2023/04/24 09:51:11;;;;;;;;;5.33;5.00;;;;;21.35;32.70;97297.38;4992414;28;103289;-73
2023/04/24 09:53:41;;;;;;;;;5.67;5.67;;;;;21.51;32.48;97292.41;4988611;27;101592;-74
2023/04/24 09:56:09;;;;;;;;;5.00;5.00;;;;;21.62;31.18;97290.28;4976617;28;101887;-74
2023/04/24 09:58:36;;;;;;;;;8.00;7.67;;;;;21.27;32.32;97289.81;4995578;28;101606;-73
2023/04/24 10:01:04;;;;;;;;;10.00;9.00;;;;;21.19;31.71;97287.75;4986082;27;104853;-73
2023/04/24 10:03:33;;;;;;;;;11.00;10.00;;;;;20.81;32.71;97286.97;4973769;28;101582;-74
2023/04/24 10:06:08;;;;;;;;;9.00;8.33;;;;;21.10;33.47;97278.53;4984387;27;101325;-74
2023/04/24 10:08:37;;;;;;;;;7.00;6.00;;;;;21.32;33.40;97292.47;4981627;27;101546;-73
2023/04/24 10:11:04;;;;;;;;;5.67;5.67;;;;;21.43;32.16;97289.56;4969541;28;103412;-74
2023/04/24 10:13:32;;;;;;;;;4.67;4.67;;;;;21.46;32.32;97277.94;4990282;27;101551;-73
2023/04/24 10:16:00;;;;;;;;;4.00;4.00;;;;;21.62;31.42;97285.59;4989589;28;101750;-74
2023/04/24 10:18:29;;;;;;;;;5.00;4.33;;;;;21.36;31.45;97279.75;4986340;28;101566;-75
2023/04/24 10:20:59;;;;;;;;;9.33;9.33;;;;;20.98;31.68;97282.88;4986125;28;103334;-73
2023/04/24 10:23:28;;;;;;;;;9.00;9.00;;;;;21.09;32.10;97254.09;4983567;27;101596;-74
2023/04/24 10:25:55;;;;;;;;;6.00;4.33;;;;;21.69;32.52;97279.69;4986505;28;101633;-74
2023/04/24 10:28:24;;;;;;;;;5.33;5.00;;;;;21.96;31.26;97279.75;4987526;28;101593;-74
2023/04/24 10:30:54;;;;;;;;;4.00;4.00;;;;;22.08;29.10;97274.53;4977808;28;108143;-74
2023/04/24 10:33:23;;;;;;;;;5.00;4.00;;;;;22.19;28.57;97270.44;4982468;28;101322;-73
2023/04/24 10:35:51;;;;;;;;;5.00;5.00;;;;;22.17;27.60;97271.88;4987942;28;102083;-73
2023/04/24 10:38:25;;;;;;;;;10.00;10.00;;;;;21.41;30.50;97267.03;4980933;28;101813;-74
2023/04/24 10:41:07;;;;;;;;;12.00;11.67;;;;;21.06;31.74;97271.19;4981543;28;107742;-73
2023/04/24 10:43:34;;;;;;;;;13.00;12.00;;;;;20.98;31.91;97258.97;4979595;28;106658;-74
2023/04/24 10:46:02;;;;;;;;;9.00;9.00;;;;;21.51;30.50;97267.66;4979096;28;101639;-73
2023/04/24 10:48:30;;;;;;;;;7.00;7.00;;;;;21.83;32.55;97257.69;4988632;28;101490;-73
2023/04/24 10:50:57;;;;;;;;;6.00;6.00;;;;;21.91;30.30;97249.53;4980001;27;103304;-73
2023/04/24 10:53:28;;;;;;;;;6.00;5.00;;;;;22.15;32.53;97247.38;4987383;27;103024;-72
2023/04/24 10:56:02;;;;;;;;;5.00;5.00;;;;;22.18;32.88;97249.53;4976849;27;101831;-72
2023/04/24 10:58:40;;;;;;;;;6.00;5.00;;;;;22.25;31.92;97254.59;4983943;28;102741;-73
2023/04/24 11:01:07;;;;;;;;;7.33;6.00;;;;;22.12;32.75;97259.03;4981827;27;103274;-74
2023/04/24 11:03:36;;;;;;;;;8.00;7.00;;;;;22.16;32.61;97254.53;4979059;28;101777;-74
2023/04/24 11:06:05;;;;;;;;;14.00;13.00;;;;;21.36;33.70;97257.75;4985150;28;101568;-74
2023/04/24 11:08:43;;;;;;;;;11.00;11.00;;;;;21.48;33.99;97251.75;4987040;27;101492;-74
2023/04/24 11:11:10;;;;;;;;;8.33;8.00;;;;;21.78;33.41;97255.84;4976122;28;103353;-74
2023/04/24 11:13:55;;;;;;;;;6.00;6.00;;;;;21.84;32.08;97254.63;4978841;28;101862;-73
2023/04/24 11:16:33;;;;;;;;;10.00;8.67;;;;;21.57;34.35;97258.19;4977855;27;101449;-73
2023/04/24 11:19:16;;;;;;;;;6.00;6.00;;;;;21.49;33.53;97263.56;4985226;28;101526;-74
2023/04/24 11:22:03;;;;;;;;;8.33;7.00;;;;;21.19;36.16;97267.69;4979711;28;103337;-73
2023/04/24 11:24:31;;;;;;;;;11.00;10.00;;;;;20.38;37.73;97269.78;4980322;27;101256;-73